createdAt,value
2022-08-04T04:00:47.317Z,20.62
2022-08-04T04:03:44.235Z,20.68
2022-08-04T04:06:52.915Z,20.73
2022-08-04T04:09:56.985Z,20.77
2022-08-04T04:12:50.585Z,20.80
2022-08-04T04:15:52.007Z,20.80
2022-08-04T04:18:55.125Z,20.77
2022-08-04T04:21:56.657Z,20.78
2022-08-04T04:24:59.540Z,20.81
2022-08-04T04:27:45.540Z,20.87
2022-08-04T04:30:31.729Z,20.96
2022-08-04T04:33:02.561Z,21.07
2022-08-04T04:35:56.305Z,21.14
2022-08-04T04:38:29.931Z,21.19
2022-08-04T04:41:09.953Z,21.24
2022-08-04T04:43:55.954Z,21.35
2022-08-04T04:47:14.536Z,21.48
2022-08-04T04:49:53.546Z,21.68
2022-08-04T04:52:37.089Z,22.10
2022-08-04T04:55:04.772Z,22.27
2022-08-04T04:57:53.220Z,22.36
2022-08-04T05:00:31.247Z,22.64
2022-08-04T05:03:17.477Z,22.94
2022-08-04T05:05:54.068Z,23.26
2022-08-04T05:08:54.456Z,23.56
2022-08-04T05:11:54.461Z,23.93
2022-08-04T05:14:41.004Z,24.12
2022-08-04T05:17:21.909Z,24.28
2022-08-04T05:20:07.105Z,24.77
2022-08-04T05:22:58.089Z,25.06
2022-08-04T05:25:35.047Z,25.10
2022-08-04T05:28:10.246Z,25.03
2022-08-04T05:30:51.356Z,25.27
2022-08-04T05:33:34.524Z,25.57
2022-08-04T05:36:18.753Z,25.65
2022-08-04T05:39:00.219Z,25.84
2022-08-04T05:41:32.357Z,26.64
2022-08-04T05:44:15.042Z,27.75
2022-08-04T05:46:46.083Z,30.29
2022-08-04T05:49:24.939Z,32.97
2022-08-04T05:51:55.434Z,35.15
2022-08-04T05:54:24.483Z,37.10
2022-08-04T05:56:55.473Z,38.79
2022-08-04T05:59:25.758Z,40.34
2022-08-04T06:01:57.542Z,41.52
2022-08-04T06:04:35.281Z,42.57
2022-08-04T06:07:02.625Z,43.77
2022-08-04T06:09:31.412Z,44.45
2022-08-04T06:12:07.912Z,44.95
2022-08-04T06:14:43.265Z,44.98
2022-08-04T06:19:56.790Z,43.84
2022-08-04T06:20:19.228Z,41.69
2022-08-04T06:22:54.469Z,39.95
2022-08-04T06:25:25.820Z,38.47
2022-08-04T06:27:56.165Z,37.25
2022-08-04T06:30:27.114Z,36.22
2022-08-04T06:33:03.458Z,35.21
2022-08-04T06:35:34.530Z,34.35
2022-08-04T06:38:03.099Z,33.64
2022-08-04T06:40:34.069Z,33.02
2022-08-04T06:43:04.324Z,32.52
2022-08-04T06:45:34.797Z,32.10
2022-08-04T06:48:05.216Z,31.73
2022-08-04T06:51:25.116Z,31.46
2022-08-04T06:53:25.588Z,31.16
2022-08-04T06:55:54.770Z,30.91
2022-08-04T06:58:23.317Z,30.62
2022-08-04T07:00:51.230Z,30.42
2022-08-04T07:03:21.165Z,30.25
2022-08-04T07:05:51.198Z,30.20
2022-08-04T07:08:20.161Z,30.16
2022-08-04T07:10:48.853Z,30.11
2022-08-04T07:13:18.210Z,30.06
2022-08-04T07:15:48.083Z,30.00
2022-08-04T07:18:16.543Z,30.00
2022-08-04T07:20:46.586Z,30.02
2022-08-04T07:23:21.599Z,30.01
2022-08-04T07:26:11.381Z,29.99
2022-08-04T07:28:41.887Z,29.99
2022-08-04T07:31:31.913Z,30.01
2022-08-04T07:34:16.575Z,30.03
2022-08-04T07:36:56.077Z,29.99
2022-08-04T07:39:30.924Z,30.00
2022-08-04T07:42:02.637Z,30.00
2022-08-04T07:44:32.201Z,30.04
2022-08-04T07:47:02.423Z,30.03
2022-08-04T07:49:55.664Z,30.01
2022-08-04T07:52:20.624Z,29.99
2022-08-04T07:54:50.424Z,29.99
2022-08-04T07:57:40.587Z,30.01
2022-08-04T08:00:10.244Z,30.02
2022-08-04T08:02:48.760Z,30.06
2022-08-04T08:05:19.140Z,30.05
2022-08-04T08:07:54.732Z,30.05
2022-08-04T08:10:26.653Z,30.07
2022-08-04T08:12:54.057Z,30.07
2022-08-04T08:15:23.084Z,30.05
2022-08-04T08:17:59.802Z,30.05
2022-08-04T08:20:32.093Z,30.08
2022-08-04T08:23:01.497Z,30.12
2022-08-04T08:25:33.499Z,30.12
2022-08-04T08:28:03.993Z,30.10
2022-08-04T08:30:33.058Z,30.12
2022-08-04T08:33:07.096Z,30.13
2022-08-04T08:36:08.205Z,30.13
2022-08-04T08:38:51.416Z,30.14
2022-08-04T08:41:37.384Z,30.15
2022-08-04T08:44:19.200Z,30.16
2022-08-04T08:47:26.165Z,30.15
2022-08-04T08:50:07.649Z,30.16
2022-08-04T08:53:23.973Z,30.13
2022-08-04T08:56:17.432Z,30.12
2022-08-04T08:59:15.275Z,30.12
2022-08-04T09:01:47.338Z,30.17
2022-08-04T09:04:35.780Z,30.21
2022-08-04T09:07:17.153Z,30.24
2022-08-04T09:09:44.881Z,30.27
2022-08-04T09:12:28.048Z,30.27
2022-08-04T09:15:16.143Z,30.30
2022-08-04T09:18:00.456Z,30.33
2022-08-04T09:20:40.567Z,30.38
2022-08-04T09:23:20.263Z,30.40
2022-08-04T09:26:02.714Z,30.38
2022-08-04T09:28:57.052Z,30.36
2022-08-04T09:31:48.976Z,30.36
2022-08-04T09:34:44.709Z,30.45
2022-08-04T09:37:25.940Z,30.52
2022-08-04T09:40:31.614Z,30.54
2022-08-04T09:43:22.644Z,30.56
2022-08-04T09:46:07.185Z,30.59
2022-08-04T09:49:01.608Z,30.60
2022-08-04T09:51:59.205Z,30.60
2022-08-04T09:54:54.100Z,30.60
2022-08-04T09:57:50.892Z,30.61
2022-08-04T10:00:20.551Z,30.64
2022-08-04T10:03:19.230Z,30.65
2022-08-04T10:05:54.802Z,30.66
2022-08-04T10:09:09.450Z,30.65
2022-08-04T10:11:56.210Z,30.66
2022-08-04T10:14:54.204Z,30.65
2022-08-04T10:17:52.331Z,30.66
2022-08-04T10:20:56.717Z,30.63
2022-08-04T10:23:56.248Z,30.61
2022-08-04T10:26:43.284Z,30.61
2022-08-04T10:29:29.824Z,30.59
2022-08-04T10:32:07.085Z,30.61
2022-08-04T10:35:18.318Z,30.62
2022-08-04T10:38:13.685Z,30.63
2022-08-04T10:41:02.692Z,30.64
2022-08-04T10:43:36.318Z,30.65
2022-08-04T10:46:20.102Z,30.68
2022-08-04T10:49:00.829Z,30.70
2022-08-04T10:51:57.598Z,30.73
2022-08-04T10:54:31.234Z,30.75
2022-08-04T10:57:16.481Z,30.75
2022-08-04T11:00:00.595Z,30.77
2022-08-04T11:03:19.239Z,30.78
2022-08-04T11:05:52.717Z,30.75
2022-08-04T11:08:35.825Z,30.76
2022-08-04T11:11:25.646Z,30.79
2022-08-04T11:13:59.482Z,30.80
2022-08-04T11:16:37.644Z,30.82
2022-08-04T11:19:44.869Z,30.84
2022-08-04T11:22:22.308Z,30.88
2022-08-04T11:24:51.827Z,30.89
2022-08-04T11:27:51.534Z,30.91
2022-08-04T11:30:19.911Z,30.92
2022-08-04T11:33:04.641Z,30.92
2022-08-04T11:35:51.140Z,30.94
2022-08-04T11:38:51.815Z,30.97
2022-08-04T11:41:46.791Z,30.97
2022-08-04T11:44:26.894Z,30.98
2022-08-04T11:47:01.174Z,30.98
2022-08-04T11:49:56.959Z,30.95
2022-08-04T11:52:24.061Z,30.95
2022-08-04T11:54:52.776Z,30.96
2022-08-04T11:57:36.170Z,30.98
2022-08-04T12:00:12.967Z,31.00
2022-08-04T12:03:01.139Z,30.99
2022-08-04T12:05:36.755Z,30.97
2022-08-04T12:08:22.532Z,30.96
2022-08-04T12:11:27.430Z,30.98
2022-08-04T12:14:21.562Z,31.00
2022-08-04T12:16:54.741Z,31.01
2022-08-04T12:19:55.401Z,31.01
2022-08-04T12:22:31.242Z,31.00
2022-08-04T12:25:03.136Z,31.00
2022-08-04T12:28:12.453Z,30.99
2022-08-04T12:30:58.403Z,30.98
2022-08-04T12:34:06.826Z,30.95
2022-08-04T12:36:48.219Z,30.94
2022-08-04T12:39:22.447Z,30.94
2022-08-04T12:42:20.859Z,30.96
2022-08-04T12:44:54.391Z,30.98
2022-08-04T12:47:29.050Z,30.97
2022-08-04T12:50:03.363Z,30.94
2022-08-04T12:53:03.732Z,30.91
2022-08-04T12:55:35.494Z,30.90
2022-08-04T12:58:12.125Z,30.91
2022-08-04T13:00:42.232Z,30.92
2022-08-04T13:03:17.316Z,30.91
2022-08-04T13:05:46.795Z,30.90
2022-08-04T13:08:20.326Z,30.91
2022-08-04T13:10:52.566Z,30.90
2022-08-04T13:13:25.145Z,30.89
2022-08-04T13:16:01.290Z,30.88
2022-08-04T13:18:32.247Z,30.88
2022-08-04T13:21:19.594Z,30.89
2022-08-04T13:24:10.143Z,30.90
2022-08-04T13:27:16.265Z,30.90
2022-08-04T13:30:00.602Z,30.88
2022-08-04T13:32:35.686Z,30.89
2022-08-04T13:35:05.962Z,30.90
2022-08-04T13:37:39.442Z,30.90
2022-08-04T13:40:12.707Z,30.87
2022-08-04T13:42:46.814Z,30.82
2022-08-04T13:45:20.809Z,30.78
2022-08-04T13:47:51.527Z,30.74
2022-08-04T13:50:27.538Z,30.70
2022-08-04T13:52:58.975Z,30.70
2022-08-04T13:55:33.721Z,30.70
2022-08-04T13:58:20.009Z,30.66
2022-08-04T14:01:03.233Z,30.62
2022-08-04T14:03:53.605Z,30.61
2022-08-04T14:06:30.780Z,30.58
2022-08-04T14:09:01.248Z,30.55
2022-08-04T14:12:10.642Z,30.52
2022-08-04T14:14:31.415Z,30.52
2022-08-04T14:17:16.290Z,30.54
2022-08-04T14:20:01.007Z,30.53
2022-08-04T14:22:33.283Z,30.50
2022-08-04T14:25:05.882Z,30.48
2022-08-04T14:27:46.139Z,30.46
2022-08-04T14:30:23.154Z,30.45
2022-08-04T14:34:02.816Z,30.47
2022-08-04T14:35:59.100Z,30.47
2022-08-04T14:38:46.158Z,30.46
2022-08-04T14:41:16.246Z,30.44
2022-08-04T14:43:54.176Z,30.44
2022-08-04T14:46:30.235Z,30.42
2022-08-04T14:49:10.899Z,30.41
2022-08-04T14:51:44.554Z,30.37
2022-08-04T14:54:18.580Z,30.32
2022-08-04T14:56:57.485Z,30.30
2022-08-04T14:59:25.739Z,30.27
2022-08-04T15:02:00.418Z,30.29
2022-08-04T15:04:31.048Z,30.29
2022-08-04T15:07:00.708Z,30.29
2022-08-04T15:09:33.551Z,30.28
2022-08-04T15:12:04.037Z,30.25
2022-08-04T15:14:37.670Z,30.21
2022-08-04T15:17:11.938Z,30.19
2022-08-04T15:19:56.451Z,30.17
2022-08-04T15:22:24.352Z,30.14
2022-08-04T15:24:55.446Z,30.08
2022-08-04T15:27:28.182Z,30.00
2022-08-04T15:30:01.972Z,29.98
2022-08-04T15:32:37.000Z,29.96
2022-08-04T15:35:26.583Z,29.94
2022-08-04T15:38:02.955Z,29.90
2022-08-04T15:40:55.709Z,29.86
2022-08-04T15:43:55.482Z,29.82
2022-08-04T15:47:10.332Z,29.80
2022-08-04T15:49:40.367Z,29.73
2022-08-04T15:52:12.686Z,29.68
2022-08-04T15:54:51.933Z,29.64
2022-08-04T15:58:00.298Z,29.62
2022-08-04T16:00:28.581Z,29.57
2022-08-04T16:02:56.184Z,29.51
2022-08-04T16:05:24.145Z,29.48
2022-08-04T16:08:15.674Z,29.44
2022-08-04T16:10:46.835Z,29.41
2022-08-04T16:13:20.523Z,29.40
2022-08-04T16:15:51.852Z,29.38
2022-08-04T16:18:44.178Z,29.35
2022-08-04T16:21:22.653Z,29.30
2022-08-04T16:23:56.954Z,29.26
2022-08-04T16:26:36.950Z,29.23
2022-08-04T16:29:32.396Z,29.18
2022-08-04T16:32:10.816Z,29.13
2022-08-04T16:35:00.036Z,29.11
2022-08-04T16:37:40.950Z,29.05
2022-08-04T16:40:54.717Z,29.03
2022-08-04T16:43:23.610Z,28.93
2022-08-04T16:46:06.961Z,28.83
2022-08-04T16:49:07.726Z,28.75
2022-08-04T16:51:35.801Z,28.70
2022-08-04T16:54:05.578Z,28.66
2022-08-04T16:56:35.024Z,28.64
2022-08-04T16:59:12.324Z,28.60
2022-08-04T17:01:48.972Z,28.56
2022-08-04T17:04:17.083Z,28.51
2022-08-04T17:06:46.478Z,28.45
2022-08-04T17:09:17.422Z,28.40
2022-08-04T17:11:47.042Z,28.37
2022-08-04T17:14:21.553Z,28.34
2022-08-04T17:16:49.295Z,28.29
2022-08-04T17:19:24.075Z,28.24
2022-08-04T17:22:06.797Z,28.19
2022-08-04T17:24:37.877Z,28.15
2022-08-04T17:28:19.242Z,28.11
2022-08-04T17:29:56.101Z,28.06
2022-08-04T17:32:24.441Z,27.98
2022-08-04T17:34:58.727Z,27.92
2022-08-04T17:37:39.634Z,27.87
2022-08-04T17:40:13.867Z,27.83
2022-08-04T17:42:42.472Z,27.78
2022-08-04T17:52:04.526Z,27.59
2022-08-04T17:54:40.657Z,27.52
2022-08-04T17:57:26.554Z,27.48
2022-08-04T17:59:59.358Z,27.43
2022-08-04T18:02:33.300Z,27.38
2022-08-04T18:05:07.857Z,27.33
2022-08-04T18:08:45.869Z,27.29
2022-08-04T18:10:51.868Z,27.23
2022-08-04T18:13:27.463Z,27.17
2022-08-04T18:16:10.060Z,27.11
2022-08-04T18:18:42.069Z,27.04
2022-08-04T18:21:16.490Z,26.98
2022-08-04T18:23:50.518Z,26.91
2022-08-04T18:26:18.621Z,26.83
2022-08-04T18:28:51.362Z,26.76
2022-08-04T18:31:18.385Z,26.67
2022-08-04T18:33:57.260Z,26.61
2022-08-04T18:36:33.658Z,26.54
2022-08-04T18:39:12.000Z,26.47
2022-08-04T18:42:03.756Z,26.39
2022-08-04T18:44:29.145Z,26.31
2022-08-04T18:46:56.525Z,26.25
2022-08-04T18:51:01.667Z,26.19
2022-08-04T18:52:14.952Z,26.10
2022-08-04T18:54:42.535Z,26.03
2022-08-04T18:57:58.915Z,25.92
2022-08-04T19:00:08.458Z,25.84
2022-08-04T19:02:35.533Z,25.80
2022-08-04T19:05:02.749Z,25.78
2022-08-04T19:07:30.666Z,25.75
2022-08-04T19:09:59.683Z,25.72
2022-08-04T19:12:28.614Z,25.69
2022-08-04T19:15:08.973Z,25.65
2022-08-04T19:17:57.312Z,25.60
2022-08-04T19:20:29.445Z,25.55
2022-08-04T19:25:59.413Z,25.46
2022-08-04T19:28:36.016Z,25.42
2022-08-04T19:31:05.699Z,25.37
2022-08-04T19:33:59.613Z,25.33
2022-08-04T19:36:28.484Z,25.28
2022-08-04T19:38:57.405Z,25.24
2022-08-04T19:41:26.774Z,25.19
2022-08-04T19:43:55.057Z,25.14
2022-08-04T19:46:24.894Z,25.10
2022-08-04T19:48:59.567Z,25.06
2022-08-04T19:51:29.746Z,24.99
2022-08-04T19:54:02.838Z,24.93
2022-08-04T19:56:39.869Z,24.88
2022-08-04T19:59:11.888Z,24.83
2022-08-04T20:01:44.903Z,24.78
2022-08-04T20:04:15.666Z,24.74
2022-08-04T20:06:44.747Z,24.71
2022-08-04T20:09:25.123Z,24.67
2022-08-04T20:11:55.729Z,24.62
2022-08-04T20:14:32.408Z,24.57
2022-08-04T20:17:03.282Z,24.53
2022-08-04T20:19:39.553Z,24.49
2022-08-04T20:22:43.927Z,24.44
2022-08-04T20:25:10.986Z,24.39
2022-08-04T20:27:59.985Z,24.34
2022-08-04T20:30:30.129Z,24.30
2022-08-04T20:32:59.854Z,24.25
2022-08-04T20:35:27.991Z,24.17
2022-08-04T20:38:00.428Z,24.12
2022-08-04T20:40:30.004Z,24.11
2022-08-04T20:42:58.577Z,24.07
2022-08-04T20:45:57.186Z,24.01
2022-08-04T20:48:13.282Z,23.93
2022-08-04T20:50:40.276Z,23.86
2022-08-04T20:53:16.257Z,23.85
2022-08-04T20:55:55.527Z,23.84
2022-08-04T20:58:27.667Z,23.78
